createdAt,value
2023-01-07T00:04:15.590Z,94324.91
2023-01-07T00:09:19.478Z,94320.34
2023-01-07T00:14:22.548Z,94320.66
2023-01-07T00:19:26.016Z,94321.47
2023-01-07T00:24:29.479Z,94321.16
2023-01-07T00:29:33.227Z,94315.63
2023-01-07T00:34:39.285Z,94327.72
2023-01-07T00:39:42.370Z,94323.09
2023-01-07T00:44:45.806Z,94325.66
2023-01-07T00:49:48.862Z,94326.47
2023-01-07T00:54:52.585Z,94322.81
2023-01-07T00:59:56.336Z,94305.63
2023-01-07T01:04:59.433Z,94324.69
2023-01-07T01:10:06.015Z,94311.53
2023-01-07T01:15:15.279Z,94309.28
2023-01-07T01:20:20.373Z,94307.81
2023-01-07T01:25:23.551Z,94297.78
2023-01-07T01:30:27.522Z,94301.41
2023-01-07T01:35:32.407Z,94303.84
2023-01-07T01:40:35.842Z,94301.47
2023-01-07T01:45:41.151Z,94297.78
2023-01-07T01:50:48.200Z,94303.69
2023-01-07T01:56:07.850Z,94293.69
2023-01-07T02:01:12.992Z,94287.00
2023-01-07T02:06:25.725Z,94290.34
2023-01-07T02:12:25.544Z,94290.88
2023-01-07T02:17:34.245Z,94285.31
2023-01-07T02:23:04.411Z,94290.41
2023-01-07T02:28:35.677Z,94275.28
2023-01-07T02:33:45.339Z,94275.41
2023-01-07T02:38:57.484Z,94280.38
2023-01-07T02:44:26.557Z,94277.06
2023-01-07T02:49:30.194Z,94284.19
2023-01-07T02:54:35.194Z,94275.13
2023-01-07T02:59:44.933Z,94275.94
2023-01-07T03:04:51.398Z,94260.53
2023-01-07T03:10:03.588Z,94262.75
2023-01-07T03:15:14.016Z,94264.03
2023-01-07T03:20:20.616Z,94257.34
2023-01-07T03:25:27.645Z,94250.81
2023-01-07T03:30:32.495Z,94254.97
2023-01-07T03:35:40.450Z,94253.25
2023-01-07T03:40:44.485Z,94245.78
2023-01-07T03:45:50.696Z,94247.19
2023-01-07T03:50:53.925Z,94247.66
2023-01-07T03:55:57.191Z,94248.28
2023-01-07T04:01:00.616Z,94241.16
2023-01-07T04:06:04.431Z,94247.81
2023-01-07T04:11:08.369Z,94245.13
2023-01-07T04:16:11.788Z,94252.13
2023-01-07T04:21:14.961Z,94242.91
2023-01-07T04:26:18.509Z,94245.28
2023-01-07T04:31:22.036Z,94253.09
2023-01-07T04:36:26.544Z,94258.03
2023-01-07T04:41:31.329Z,94255.94
2023-01-07T04:46:35.436Z,94259.13
2023-01-07T04:51:39.261Z,94267.59
2023-01-07T04:56:43.085Z,94273.00
2023-01-07T05:01:47.957Z,94271.41
2023-01-07T05:06:52.127Z,94264.72
2023-01-07T05:11:55.494Z,94266.00
2023-01-07T05:16:58.743Z,94269.34
2023-01-07T05:22:05.382Z,94276.63
2023-01-07T05:27:13.316Z,94271.09
2023-01-07T05:32:18.361Z,94277.75
2023-01-07T05:37:21.948Z,94282.19
2023-01-07T05:42:26.327Z,94287.44
2023-01-07T05:47:30.238Z,94287.59
2023-01-07T05:52:33.321Z,94289.03
2023-01-07T05:57:37.258Z,94293.50
2023-01-07T06:02:40.502Z,94285.03
2023-01-07T06:07:44.473Z,94291.41
2023-01-07T06:12:47.536Z,94292.53
2023-01-07T06:17:50.630Z,94296.03
2023-01-07T06:22:54.671Z,94287.13
2023-01-07T06:27:58.809Z,94296.50
2023-01-07T06:33:02.410Z,94291.44
2023-01-07T06:38:05.886Z,94292.22
2023-01-07T06:43:09.894Z,94301.56
2023-01-07T06:48:13.081Z,94296.31
2023-01-07T06:53:17.175Z,94289.88
2023-01-07T06:58:20.614Z,94295.34
2023-01-07T07:03:24.167Z,94294.91
2023-01-07T07:08:27.764Z,94299.44
2023-01-07T07:13:31.241Z,94291.78
2023-01-07T07:18:34.374Z,94287.94
2023-01-07T07:23:37.854Z,94287.16
2023-01-07T07:28:43.184Z,94286.03
2023-01-07T07:33:46.354Z,94279.38
2023-01-07T07:38:49.498Z,94259.06
2023-01-07T07:43:52.561Z,94266.25
2023-01-07T07:48:55.745Z,94271.56
2023-01-07T07:53:59.312Z,94261.00
2023-01-07T07:59:02.779Z,94267.91
2023-01-07T08:04:06.277Z,94258.47
2023-01-07T08:09:09.857Z,94267.56
2023-01-07T08:14:13.002Z,94269.03
2023-01-07T08:19:16.193Z,94265.47
2023-01-07T08:24:20.489Z,94271.75
2023-01-07T08:29:24.383Z,94275.69
2023-01-07T08:34:28.005Z,94276.88
2023-01-07T08:39:31.814Z,94281.69
2023-01-07T08:44:35.251Z,94278.41
2023-01-07T08:49:38.765Z,94294.91
2023-01-07T08:54:41.883Z,94291.94
2023-01-07T08:59:45.316Z,94288.72
2023-01-07T09:04:48.870Z,94284.00
2023-01-07T09:09:52.012Z,94287.38
2023-01-07T09:14:55.541Z,94288.69
2023-01-07T09:20:02.833Z,94277.41
2023-01-07T09:25:06.464Z,94277.63
2023-01-07T09:30:11.003Z,94273.56
2023-01-07T09:35:15.780Z,94278.00
2023-01-07T09:40:31.999Z,94268.88
2023-01-07T09:45:39.351Z,94274.63
2023-01-07T09:50:54.830Z,94268.53
2023-01-07T09:56:11.477Z,94258.69
2023-01-07T10:01:53.028Z,94252.31
2023-01-07T10:07:31.435Z,94254.03
2023-01-07T10:12:49.193Z,94255.22
2023-01-07T10:18:16.053Z,94244.69
2023-01-07T10:23:32.244Z,94232.22
2023-01-07T10:28:43.973Z,94234.94
2023-01-07T10:33:49.726Z,94224.50
2023-01-07T10:39:17.385Z,94212.53
2023-01-07T10:44:26.169Z,94208.00
2023-01-07T10:50:05.438Z,94211.00
2023-01-07T10:55:39.158Z,94208.03
2023-01-07T11:00:42.490Z,94195.53
2023-01-07T11:05:49.078Z,94188.78
2023-01-07T11:10:53.150Z,94192.16
2023-01-07T11:16:10.844Z,94193.00
2023-01-07T11:21:43.501Z,94192.38
2023-01-07T11:26:47.522Z,94176.09
2023-01-07T11:31:56.750Z,94173.19
2023-01-07T11:36:59.982Z,94178.16
2023-01-07T11:42:37.712Z,94177.97
2023-01-07T11:47:52.278Z,94167.28
2023-01-07T11:52:58.012Z,94165.66
2023-01-07T11:58:28.504Z,94166.81
2023-01-07T12:03:24.971Z,94157.03
2023-01-07T12:08:28.185Z,94151.53
2023-01-07T12:13:32.107Z,94156.63
2023-01-07T12:19:31.627Z,94154.66
2023-01-07T12:24:43.629Z,94137.78
2023-01-07T12:30:18.701Z,94133.44
2023-01-07T12:35:26.349Z,94132.66
2023-01-07T12:40:45.087Z,94127.16
2023-01-07T12:45:50.753Z,94115.38
2023-01-07T12:51:00.289Z,94114.16
2023-01-07T12:56:30.117Z,94109.72
2023-01-07T13:01:49.865Z,94106.88
2023-01-07T13:07:02.312Z,94108.16
2023-01-07T13:12:40.703Z,94100.56
2023-01-07T13:17:46.075Z,94112.84
2023-01-07T13:22:56.782Z,94113.91
2023-01-07T13:28:37.511Z,94114.03
2023-01-07T13:33:43.559Z,94125.22
2023-01-07T13:39:01.512Z,94124.81
2023-01-07T13:44:23.200Z,94129.53
2023-01-07T13:49:32.975Z,94129.84
2023-01-07T13:54:48.249Z,94131.78
2023-01-07T13:59:54.403Z,94135.25
2023-01-07T14:05:32.935Z,94133.69
2023-01-07T14:10:37.875Z,94136.41
2023-01-07T14:16:19.221Z,94137.50
2023-01-07T14:21:56.541Z,94131.94
2023-01-07T14:27:37.638Z,94137.41
2023-01-07T14:32:40.785Z,94131.88
2023-01-07T14:37:48.800Z,94133.72
2023-01-07T14:42:53.264Z,94138.31
2023-01-07T14:47:57.269Z,94139.41
2023-01-07T14:53:24.923Z,94146.28
2023-01-07T14:58:43.537Z,94140.97
2023-01-07T15:04:24.336Z,94150.94
2023-01-07T15:09:58.521Z,94151.13
2023-01-07T15:15:48.483Z,94159.69
2023-01-07T15:21:01.292Z,94159.22
2023-01-07T15:26:17.818Z,94164.69
2023-01-07T15:31:39.232Z,94165.72
2023-01-07T15:36:48.765Z,94174.31
2023-01-07T15:41:55.904Z,94165.28
2023-01-07T15:46:58.843Z,94167.66
2023-01-07T15:52:02.821Z,94169.84
2023-01-07T15:57:17.480Z,94161.19
2023-01-07T16:02:40.339Z,94168.97
2023-01-07T16:07:43.482Z,94172.78
2023-01-07T16:12:50.799Z,94175.41
2023-01-07T16:17:56.862Z,94174.16
2023-01-07T16:23:24.404Z,94181.94
2023-01-07T16:28:33.291Z,94177.28
2023-01-07T16:33:38.059Z,94180.31
2023-01-07T16:38:42.827Z,94164.59
2023-01-07T16:43:46.376Z,94169.38
2023-01-07T16:49:09.506Z,94181.06
2023-01-07T16:54:23.167Z,94187.31
2023-01-07T16:59:34.811Z,94172.38
2023-01-07T17:04:39.444Z,94172.75
2023-01-07T17:09:43.556Z,94176.91
2023-01-07T17:14:49.674Z,94176.75
2023-01-07T17:20:11.400Z,94187.63
2023-01-07T17:25:21.559Z,94193.84
2023-01-07T17:30:33.023Z,94196.34
2023-01-07T17:35:46.053Z,94193.88
2023-01-07T17:40:51.237Z,94197.09
2023-01-07T17:45:55.447Z,94200.06
2023-01-07T17:51:01.326Z,94207.69
2023-01-07T17:56:08.168Z,94208.47
2023-01-07T18:01:18.447Z,94209.28
2023-01-07T18:06:25.322Z,94207.50
2023-01-07T18:11:48.199Z,94208.69
2023-01-07T18:16:53.121Z,94207.91
2023-01-07T18:21:56.495Z,94207.22
2023-01-07T18:27:00.398Z,94218.31
2023-01-07T18:32:03.909Z,94214.50
2023-01-07T18:37:07.112Z,94215.78
2023-01-07T18:42:10.751Z,94223.78
2023-01-07T18:47:14.305Z,94218.09
2023-01-07T18:52:18.747Z,94222.47
2023-01-07T18:57:22.377Z,94215.91
2023-01-07T19:02:25.745Z,94220.59
2023-01-07T19:07:30.361Z,94230.06
2023-01-07T19:12:33.837Z,94241.47
2023-01-07T19:17:38.175Z,94239.66
2023-01-07T19:22:41.854Z,94229.50
2023-01-07T19:27:45.377Z,94236.84
2023-01-07T19:32:49.063Z,94229.00
2023-01-07T19:37:53.269Z,94230.09
2023-01-07T19:42:56.535Z,94230.06
2023-01-07T19:48:00.912Z,94224.47
2023-01-07T19:53:06.541Z,94232.66
2023-01-07T19:58:13.315Z,94219.78
2023-01-07T20:03:16.535Z,94229.75
2023-01-07T20:08:20.697Z,94224.44
2023-01-07T20:13:23.918Z,94229.91
2023-01-07T20:18:27.538Z,94230.72
2023-01-07T20:23:30.611Z,94237.25
2023-01-07T20:28:35.667Z,94236.34
2023-01-07T20:33:39.963Z,94231.84
2023-01-07T20:38:46.119Z,94230.81
2023-01-07T20:44:14.194Z,94231.97
2023-01-07T20:49:18.250Z,94238.00
2023-01-07T20:54:22.620Z,94236.72
2023-01-07T20:59:26.085Z,94240.22
2023-01-07T21:04:29.715Z,94235.72
2023-01-07T21:09:33.349Z,94245.41
2023-01-07T21:14:37.311Z,94239.47
2023-01-07T21:19:40.402Z,94235.44
2023-01-07T21:24:44.127Z,94236.59
2023-01-07T21:29:48.408Z,94245.53
2023-01-07T21:34:51.448Z,94236.41
2023-01-07T21:39:54.957Z,94245.88
2023-01-07T21:44:58.031Z,94237.56
2023-01-07T21:50:01.765Z,94226.25
2023-01-07T21:55:07.787Z,94240.28
2023-01-07T22:00:11.968Z,94232.44
2023-01-07T22:05:18.871Z,94228.47
2023-01-07T22:10:22.053Z,94226.31
2023-01-07T22:15:26.103Z,94227.22
2023-01-07T22:20:30.283Z,94221.63
2023-01-07T22:25:34.713Z,94224.25
2023-01-07T22:30:40.989Z,94227.31
2023-01-07T22:35:45.230Z,94220.63
2023-01-07T22:40:49.082Z,94217.13
2023-01-07T22:46:00.024Z,94205.00
2023-01-07T22:51:10.583Z,94202.25
2023-01-07T22:56:14.504Z,94194.91
2023-01-07T23:01:19.216Z,94203.03
2023-01-07T23:06:23.207Z,94205.28
2023-01-07T23:11:45.648Z,94197.72
2023-01-07T23:16:50.248Z,94180.63
2023-01-07T23:21:55.953Z,94195.41
2023-01-07T23:26:59.590Z,94193.00
2023-01-07T23:32:03.143Z,94195.25
2023-01-07T23:37:06.709Z,94195.13
2023-01-07T23:42:09.733Z,94183.44
2023-01-07T23:47:13.019Z,94182.91
2023-01-07T23:52:16.981Z,94175.78
2023-01-07T23:57:20.338Z,94169.78
